createdAt,value
2023-10-04T00:02:08.161Z,21.04
2023-10-04T00:04:35.614Z,20.97
2023-10-04T00:07:05.602Z,21.02
2023-10-04T00:09:32.814Z,21.00
2023-10-04T00:12:00.379Z,20.99
2023-10-04T00:14:27.496Z,20.97
2023-10-04T00:17:00.514Z,20.95
2023-10-04T00:19:28.873Z,20.94
2023-10-04T00:21:56.122Z,20.94
2023-10-04T00:24:22.986Z,20.91
2023-10-04T00:26:50.827Z,20.90
2023-10-04T00:29:18.906Z,20.88
2023-10-04T00:31:48.449Z,20.86
2023-10-04T00:34:15.590Z,20.85
2023-10-04T00:36:44.759Z,20.85
2023-10-04T00:39:13.959Z,20.83
2023-10-04T00:41:41.310Z,20.82
2023-10-04T00:44:11.639Z,20.82
2023-10-04T00:46:42.583Z,20.81
2023-10-04T00:49:09.665Z,20.81
2023-10-04T00:51:37.834Z,20.81
2023-10-04T00:54:16.909Z,20.81
2023-10-04T00:56:44.085Z,20.82
2023-10-04T00:59:11.124Z,20.82
2023-10-04T01:01:41.410Z,20.82
2023-10-04T01:04:08.571Z,20.81
2023-10-04T01:06:36.556Z,20.81
2023-10-04T01:09:04.301Z,20.80
2023-10-04T01:11:36.211Z,20.79
2023-10-04T01:14:18.939Z,20.76
2023-10-04T01:16:45.911Z,20.75
2023-10-04T01:19:16.426Z,20.74
2023-10-04T01:21:43.276Z,20.72
2023-10-04T01:24:10.260Z,20.70
2023-10-04T01:26:38.271Z,20.69
2023-10-04T01:29:12.798Z,20.67
2023-10-04T01:31:39.855Z,20.65
2023-10-04T01:34:06.969Z,20.63
2023-10-04T01:36:37.064Z,20.62
2023-10-04T01:39:08.323Z,20.61
2023-10-04T01:41:39.522Z,20.60
2023-10-04T01:44:10.662Z,20.59
2023-10-04T01:46:38.051Z,20.59
2023-10-04T01:49:08.034Z,20.58
2023-10-04T01:51:35.145Z,20.57
2023-10-04T01:54:04.317Z,20.57
2023-10-04T01:56:32.047Z,20.58
2023-10-04T01:58:58.891Z,20.57
2023-10-04T02:01:27.347Z,20.57
2023-10-04T02:03:54.443Z,20.58
2023-10-04T02:06:21.549Z,20.59
2023-10-04T02:08:50.062Z,20.58
2023-10-04T02:11:16.861Z,20.58
2023-10-04T02:13:44.153Z,20.57
2023-10-04T02:16:19.740Z,20.57
2023-10-04T02:18:49.023Z,20.56
2023-10-04T02:21:17.808Z,20.55
2023-10-04T02:23:45.951Z,20.55
2023-10-04T02:26:12.915Z,20.53
2023-10-04T02:28:40.783Z,20.52
2023-10-04T02:31:07.872Z,20.51
2023-10-04T02:33:35.457Z,20.49
2023-10-04T02:36:03.589Z,20.48
2023-10-04T02:38:34.499Z,20.48
2023-10-04T02:41:01.621Z,20.48
2023-10-04T02:43:28.945Z,20.46
2023-10-04T02:45:58.121Z,20.46
2023-10-04T02:48:25.425Z,20.45
2023-10-04T02:50:53.242Z,20.44
2023-10-04T02:53:25.613Z,20.44
2023-10-04T02:55:56.507Z,20.43
2023-10-04T02:58:25.946Z,20.43
2023-10-04T03:00:54.482Z,20.41
2023-10-04T03:03:25.433Z,20.40
2023-10-04T03:05:55.513Z,20.41
2023-10-04T03:08:28.007Z,20.42
2023-10-04T03:10:55.953Z,20.43
2023-10-04T03:13:25.882Z,20.43
2023-10-04T03:15:55.254Z,20.43
2023-10-04T03:18:26.079Z,20.43
2023-10-04T03:21:00.892Z,20.43
2023-10-04T03:23:36.427Z,20.41
2023-10-04T03:26:07.538Z,20.40
2023-10-04T03:28:37.996Z,20.40
2023-10-04T03:31:13.314Z,20.40
2023-10-04T03:33:40.294Z,20.39
2023-10-04T03:36:08.053Z,20.39
2023-10-04T03:38:35.630Z,20.38
2023-10-04T03:43:10.953Z,19.21
2023-10-04T03:45:41.763Z,20.19
2023-10-04T03:48:17.998Z,20.32
2023-10-04T03:50:53.030Z,20.34
2023-10-04T03:53:24.012Z,20.34
2023-10-04T03:55:53.359Z,20.36
2023-10-04T03:58:22.006Z,20.38
2023-10-04T04:00:51.068Z,20.38
2023-10-04T04:03:20.423Z,20.39
2023-10-04T04:05:50.182Z,20.42
2023-10-04T04:08:18.696Z,20.45
2023-10-04T04:10:47.591Z,20.49
2023-10-04T04:13:15.263Z,20.54
2023-10-04T04:15:43.021Z,20.60
2023-10-04T04:18:15.575Z,20.67
2023-10-04T04:20:43.989Z,20.79
2023-10-04T04:23:14.074Z,20.94
2023-10-04T04:25:44.788Z,21.13
2023-10-04T04:28:16.344Z,21.38
2023-10-04T04:30:45.020Z,21.67
2023-10-04T04:33:16.711Z,21.99
2023-10-04T04:35:48.279Z,22.32
2023-10-04T04:38:21.352Z,22.64
2023-10-04T04:41:01.793Z,22.93
2023-10-04T04:43:39.573Z,23.25
2023-10-04T04:46:15.240Z,23.61
2023-10-04T04:48:43.372Z,24.01
2023-10-04T04:51:16.278Z,24.42
2023-10-04T04:53:47.406Z,24.85
2023-10-04T04:56:22.294Z,25.28
2023-10-04T04:58:57.701Z,25.74
2023-10-04T05:01:35.296Z,26.22
2023-10-04T05:04:08.156Z,26.69
2023-10-04T05:06:37.847Z,27.17
2023-10-04T05:09:06.997Z,27.62
2023-10-04T05:11:37.772Z,28.02
2023-10-04T05:14:08.586Z,28.45
2023-10-04T05:16:36.404Z,28.88
2023-10-04T05:19:11.477Z,29.31
2023-10-04T05:21:39.287Z,29.75
2023-10-04T05:24:08.163Z,30.15
2023-10-04T05:26:37.041Z,30.57
2023-10-04T05:29:05.442Z,31.00
2023-10-04T05:31:33.504Z,31.41
2023-10-04T05:34:01.270Z,31.82
2023-10-04T05:36:29.016Z,32.21
2023-10-04T05:38:56.975Z,32.58
2023-10-04T05:41:26.638Z,32.92
2023-10-04T05:43:54.280Z,33.25
2023-10-04T05:46:21.976Z,33.52
2023-10-04T05:48:50.093Z,33.75
2023-10-04T05:51:18.962Z,33.77
2023-10-04T05:53:49.260Z,33.49
2023-10-04T05:56:18.964Z,33.09
2023-10-04T05:58:47.601Z,32.60
2023-10-04T06:01:19.299Z,32.10
2023-10-04T06:03:47.306Z,31.61
2023-10-04T06:06:15.245Z,31.16
2023-10-04T06:08:51.386Z,30.75
2023-10-04T06:11:19.068Z,30.33
2023-10-04T06:13:46.991Z,29.93
2023-10-04T06:16:19.701Z,29.52
2023-10-04T06:18:49.558Z,29.20
2023-10-04T06:21:19.956Z,28.93
2023-10-04T06:23:49.404Z,28.69
2023-10-04T06:26:18.336Z,28.51
2023-10-04T06:28:47.382Z,28.37
2023-10-04T06:31:15.328Z,28.28
2023-10-04T06:33:44.396Z,28.25
2023-10-04T06:36:12.258Z,28.23
2023-10-04T06:38:40.588Z,28.17
2023-10-04T06:41:08.383Z,28.10
2023-10-04T06:43:36.414Z,28.06
2023-10-04T06:46:04.283Z,28.01
2023-10-04T06:48:33.356Z,27.99
2023-10-04T06:51:01.091Z,28.01
2023-10-04T06:53:29.320Z,28.02
2023-10-04T06:55:57.458Z,28.01
2023-10-04T06:58:25.344Z,28.04
2023-10-04T07:00:53.073Z,28.08
2023-10-04T07:03:20.733Z,28.10
2023-10-04T07:05:48.974Z,28.09
2023-10-04T07:08:17.770Z,28.05
2023-10-04T07:15:41.454Z,28.04
2023-10-04T07:18:14.136Z,28.02
2023-10-04T07:20:42.706Z,28.01
2023-10-04T07:23:12.025Z,28.00
2023-10-04T07:25:43.062Z,27.98
2023-10-04T07:28:11.426Z,27.96
2023-10-04T07:30:40.871Z,27.97
2023-10-04T07:33:09.118Z,27.97
2023-10-04T07:35:38.499Z,27.94
2023-10-04T07:38:06.878Z,27.91
2023-10-04T07:40:34.947Z,27.89
2023-10-04T07:43:03.429Z,27.86
2023-10-04T07:45:33.123Z,27.81
2023-10-04T07:48:02.896Z,27.78
2023-10-04T07:50:31.018Z,27.76
2023-10-04T07:53:09.036Z,27.76
2023-10-04T07:55:38.220Z,27.78
2023-10-04T07:58:06.569Z,27.75
2023-10-04T08:00:37.169Z,27.72
2023-10-04T08:03:05.728Z,27.70
2023-10-04T08:05:34.198Z,27.71
2023-10-04T08:08:05.529Z,27.75
2023-10-04T08:10:35.701Z,27.84
2023-10-04T08:13:05.303Z,27.96
2023-10-04T08:15:34.032Z,28.08
2023-10-04T08:18:03.030Z,28.14
2023-10-04T08:20:31.608Z,28.13
2023-10-04T08:22:59.710Z,28.12
2023-10-04T08:25:30.477Z,28.14
2023-10-04T08:27:58.717Z,28.11
2023-10-04T08:30:27.235Z,28.06
2023-10-04T08:32:55.184Z,27.98
2023-10-04T08:35:23.668Z,27.85
2023-10-04T08:38:19.841Z,27.75
2023-10-04T08:40:49.360Z,27.68
2023-10-04T08:43:18.506Z,27.55
2023-10-04T08:45:48.168Z,27.46
2023-10-04T08:48:16.276Z,27.46
2023-10-04T08:50:56.503Z,27.51
2023-10-04T08:53:43.989Z,27.58
2023-10-04T08:56:14.457Z,27.63
2023-10-04T08:58:42.308Z,27.64
2023-10-04T09:01:10.161Z,27.63
2023-10-04T09:03:39.184Z,27.61
2023-10-04T09:06:12.351Z,27.63
2023-10-04T09:08:43.068Z,27.68
2023-10-04T09:11:17.069Z,27.75
2023-10-04T09:13:50.217Z,27.78
2023-10-04T09:16:23.930Z,27.83
2023-10-04T09:23:24.955Z,27.89
2023-10-04T09:25:57.110Z,27.84
2023-10-04T09:28:39.544Z,27.82
2023-10-04T09:31:12.132Z,27.85
2023-10-04T09:33:40.665Z,27.85
2023-10-04T09:36:08.691Z,27.84
2023-10-04T09:38:37.560Z,27.83
2023-10-04T09:41:05.374Z,27.83
2023-10-04T09:43:37.400Z,27.82
2023-10-04T09:46:08.689Z,27.79
2023-10-04T09:48:39.071Z,27.76
2023-10-04T09:51:08.513Z,27.75
2023-10-04T09:53:40.769Z,27.77
2023-10-04T09:56:13.761Z,27.80
2023-10-04T09:58:51.379Z,27.81
2023-10-04T10:01:22.207Z,27.82
2023-10-04T10:04:07.127Z,27.85
2023-10-04T10:06:44.294Z,27.89
2023-10-04T10:09:12.800Z,27.92
2023-10-04T10:11:41.262Z,27.92
2023-10-04T10:14:11.721Z,27.90
2023-10-04T10:16:41.627Z,27.87
2023-10-04T10:19:10.298Z,27.84
2023-10-04T10:22:09.539Z,27.84
2023-10-04T10:24:44.299Z,27.83
2023-10-04T10:27:14.210Z,27.83
2023-10-04T10:29:44.506Z,27.83
2023-10-04T10:32:21.782Z,27.86
2023-10-04T10:35:06.034Z,27.89
2023-10-04T10:37:39.476Z,27.91
2023-10-04T10:40:10.658Z,27.94
2023-10-04T10:43:07.753Z,27.99
2023-10-04T10:45:37.203Z,28.03
2023-10-04T10:48:12.368Z,28.07
2023-10-04T10:50:44.333Z,28.11
2023-10-04T10:53:15.340Z,28.10
2023-10-04T10:55:45.461Z,28.11
2023-10-04T10:58:15.556Z,28.14
2023-10-04T11:00:45.362Z,28.20
2023-10-04T11:03:16.486Z,28.25
2023-10-04T11:05:46.761Z,28.33
2023-10-04T11:08:16.728Z,28.44
2023-10-04T11:10:47.373Z,28.55
2023-10-04T11:13:19.605Z,28.67
2023-10-04T11:15:52.725Z,28.74
2023-10-04T11:18:29.636Z,28.77
2023-10-04T11:21:05.981Z,28.74
2023-10-04T11:23:35.891Z,28.71
2023-10-04T11:26:10.400Z,28.68
2023-10-04T11:28:40.921Z,28.67
2023-10-04T11:31:10.934Z,28.68
2023-10-04T11:34:00.586Z,28.68
2023-10-04T11:36:31.433Z,28.70
2023-10-04T11:39:01.842Z,28.72
2023-10-04T11:41:32.411Z,28.75
2023-10-04T11:51:31.322Z,28.95
2023-10-04T11:54:00.034Z,28.94
2023-10-04T11:56:28.094Z,28.95
2023-10-04T11:58:58.092Z,28.87
2023-10-04T12:01:26.690Z,28.80
2023-10-04T12:03:55.804Z,28.75
2023-10-04T12:06:27.506Z,28.65
2023-10-04T12:08:55.875Z,28.57
2023-10-04T12:11:24.667Z,28.51
2023-10-04T12:13:53.120Z,28.58
2023-10-04T12:16:21.833Z,28.71
2023-10-04T12:18:50.010Z,28.86
2023-10-04T12:21:18.599Z,28.97
2023-10-04T12:23:47.113Z,29.03
2023-10-04T12:26:18.432Z,28.97
2023-10-04T12:28:46.434Z,28.84
2023-10-04T12:31:14.367Z,28.76
2023-10-04T12:33:42.825Z,28.69
2023-10-04T12:36:10.815Z,28.68
2023-10-04T12:38:38.536Z,28.65
2023-10-04T12:41:06.857Z,28.62
2023-10-04T12:43:34.802Z,28.62
2023-10-04T12:46:02.713Z,28.69
2023-10-04T12:48:32.265Z,28.77
2023-10-04T12:51:00.427Z,28.85
2023-10-04T12:53:28.858Z,28.94
2023-10-04T12:55:56.600Z,28.99
2023-10-04T12:58:25.153Z,28.98
2023-10-04T13:00:54.181Z,28.97
2023-10-04T13:03:22.222Z,29.01
2023-10-04T13:05:50.357Z,29.06
2023-10-04T13:08:22.727Z,29.07
2023-10-04T13:10:50.963Z,29.11
2023-10-04T13:13:19.531Z,29.12
2023-10-04T13:15:49.316Z,29.14
2023-10-04T13:18:19.868Z,29.15
2023-10-04T13:20:49.477Z,29.18
2023-10-04T13:23:17.367Z,29.19
2023-10-04T13:25:46.238Z,29.23
2023-10-04T13:28:18.608Z,29.19
2023-10-04T13:30:46.818Z,29.18
2023-10-04T13:33:14.800Z,29.16
2023-10-04T13:35:42.972Z,29.16
2023-10-04T13:38:11.114Z,29.17
2023-10-04T13:40:38.879Z,29.21
2023-10-04T13:43:08.600Z,29.22
2023-10-04T13:45:36.495Z,29.22
2023-10-04T13:48:11.259Z,29.25
2023-10-04T13:50:44.026Z,29.27
2023-10-04T13:53:11.941Z,29.28
2023-10-04T13:55:42.776Z,29.23
2023-10-04T13:58:10.955Z,29.15
2023-10-04T14:00:43.797Z,29.10
2023-10-04T14:03:13.000Z,29.08
2023-10-04T14:05:42.540Z,29.08
2023-10-04T14:08:10.971Z,29.09
2023-10-04T14:10:39.019Z,29.07
2023-10-04T14:13:08.096Z,29.05
2023-10-04T14:15:35.919Z,29.05
2023-10-04T14:18:06.091Z,29.07
2023-10-04T14:20:34.223Z,29.08
2023-10-04T14:23:06.947Z,29.03
2023-10-04T14:25:35.024Z,29.00
2023-10-04T14:28:02.889Z,28.98
2023-10-04T14:30:31.138Z,28.94
2023-10-04T14:32:58.936Z,28.89
2023-10-04T14:35:26.904Z,28.85
2023-10-04T14:37:54.676Z,28.80
2023-10-04T14:40:28.512Z,28.77
2023-10-04T14:42:56.708Z,28.76
2023-10-04T14:45:24.902Z,28.72
2023-10-04T14:47:53.402Z,28.67
2023-10-04T14:50:21.790Z,28.66
2023-10-04T14:52:50.504Z,28.65
2023-10-04T14:55:18.733Z,28.63
2023-10-04T14:57:48.160Z,28.59
2023-10-04T15:00:21.530Z,28.55
2023-10-04T15:02:50.226Z,28.53
2023-10-04T15:05:19.857Z,28.49
2023-10-04T15:07:48.919Z,28.48
2023-10-04T15:10:23.596Z,28.43
2023-10-04T15:12:51.666Z,28.41
2023-10-04T15:15:19.619Z,28.42
2023-10-04T15:17:47.554Z,28.40
2023-10-04T15:20:17.608Z,28.36
2023-10-04T15:22:50.090Z,28.31
2023-10-04T15:25:18.233Z,28.24
2023-10-04T15:27:53.247Z,28.21
2023-10-04T15:30:21.392Z,28.20
2023-10-04T15:32:53.985Z,28.19
2023-10-04T15:35:29.089Z,28.14
2023-10-04T15:37:59.719Z,28.11
2023-10-04T15:40:32.001Z,28.05
2023-10-04T15:43:01.289Z,28.01
2023-10-04T15:51:53.687Z,27.86
2023-10-04T15:54:21.866Z,27.79
2023-10-04T15:56:49.764Z,27.76
2023-10-04T16:01:19.887Z,26.54
2023-10-04T16:03:49.243Z,27.48
2023-10-04T16:06:17.276Z,27.50
2023-10-04T16:08:46.455Z,27.46
2023-10-04T16:11:14.212Z,27.39
2023-10-04T16:13:42.094Z,27.31
2023-10-04T16:16:09.992Z,27.22
2023-10-04T16:18:38.123Z,27.13
2023-10-04T16:21:07.493Z,27.07
2023-10-04T16:23:35.307Z,27.01
2023-10-04T16:26:05.500Z,26.95
2023-10-04T16:28:33.221Z,26.90
2023-10-04T16:31:02.937Z,26.85
2023-10-04T16:33:30.804Z,26.80
2023-10-04T16:35:58.531Z,26.74
2023-10-04T16:38:26.320Z,26.68
2023-10-04T16:40:54.160Z,26.63
2023-10-04T16:43:21.853Z,26.59
2023-10-04T16:45:52.761Z,26.54
2023-10-04T16:48:20.703Z,26.47
2023-10-04T16:50:48.501Z,26.43
2023-10-04T16:53:16.158Z,26.38
2023-10-04T16:55:45.157Z,26.34
2023-10-04T16:58:14.706Z,26.28
2023-10-04T17:00:42.664Z,26.19
2023-10-04T17:03:10.569Z,26.12
2023-10-04T17:05:38.532Z,26.05
2023-10-04T17:08:06.784Z,25.95
2023-10-04T17:10:34.835Z,25.84
2023-10-04T17:13:03.073Z,25.77
2023-10-04T17:15:31.022Z,25.69
2023-10-04T17:17:58.920Z,25.62
2023-10-04T17:20:27.041Z,25.53
2023-10-04T17:22:54.884Z,25.48
2023-10-04T17:25:23.841Z,25.41
2023-10-04T17:27:52.334Z,25.36
2023-10-04T17:30:21.735Z,25.28
2023-10-04T17:32:49.935Z,25.24
2023-10-04T17:35:19.284Z,25.20
2023-10-04T17:37:47.460Z,25.20
2023-10-04T17:40:15.829Z,25.18
2023-10-04T17:42:44.941Z,25.14
2023-10-04T17:45:13.225Z,25.12
2023-10-04T17:47:41.394Z,25.08
2023-10-04T17:50:09.828Z,25.04
2023-10-04T17:52:37.657Z,25.07
2023-10-04T17:55:06.191Z,25.08
2023-10-04T17:57:34.087Z,25.12
2023-10-04T18:00:02.982Z,25.15
2023-10-04T18:02:35.281Z,25.12
2023-10-04T18:05:04.530Z,25.08
2023-10-04T18:07:32.914Z,25.06
2023-10-04T18:10:01.723Z,25.04
2023-10-04T18:12:29.618Z,25.03
2023-10-04T18:14:57.527Z,25.00
2023-10-04T18:17:26.353Z,24.99
2023-10-04T18:19:54.369Z,24.97
2023-10-04T18:22:22.086Z,24.92
2023-10-04T18:24:50.338Z,24.93
2023-10-04T18:27:18.299Z,24.91
2023-10-04T18:29:46.033Z,24.89
2023-10-04T18:32:16.077Z,24.83
2023-10-04T18:34:44.059Z,24.78
2023-10-04T18:37:12.210Z,24.77
2023-10-04T18:39:40.188Z,24.77
2023-10-04T18:42:10.627Z,24.74
2023-10-04T18:44:41.385Z,24.75
2023-10-04T18:47:09.611Z,24.72
2023-10-04T18:49:39.465Z,24.68
2023-10-04T18:52:07.409Z,24.65
2023-10-04T18:54:35.829Z,24.59
2023-10-04T18:57:04.631Z,24.55
2023-10-04T18:59:33.025Z,24.50
2023-10-04T19:02:01.328Z,24.42
2023-10-04T19:04:30.099Z,24.37
2023-10-04T19:06:59.040Z,24.35
2023-10-04T19:09:27.215Z,24.31
2023-10-04T19:11:56.875Z,24.16
2023-10-04T19:14:25.729Z,23.95
2023-10-04T19:16:55.254Z,23.80
2023-10-04T19:19:23.436Z,23.74
2023-10-04T19:21:51.701Z,23.71
2023-10-04T19:24:19.757Z,23.68
2023-10-04T19:26:47.628Z,23.66
2023-10-04T19:29:15.850Z,23.57
2023-10-04T19:31:45.042Z,23.47
2023-10-04T19:34:13.210Z,23.34
2023-10-04T19:36:41.403Z,23.22
2023-10-04T19:39:09.933Z,23.06
2023-10-04T19:41:37.816Z,22.88
2023-10-04T19:44:06.340Z,22.76
2023-10-04T19:46:34.524Z,22.66
2023-10-04T19:49:02.777Z,22.59
2023-10-04T19:51:30.610Z,22.54
2023-10-04T19:53:58.412Z,22.51
2023-10-04T19:56:27.375Z,22.48
2023-10-04T19:58:56.161Z,22.43
2023-10-04T20:01:24.385Z,22.41
2023-10-04T20:03:53.630Z,22.35
2023-10-04T20:06:24.388Z,22.31
2023-10-04T20:08:52.379Z,22.24
2023-10-04T20:11:20.241Z,22.20
2023-10-04T20:13:48.435Z,22.15
2023-10-04T20:16:16.318Z,22.12
2023-10-04T20:18:44.152Z,22.09
2023-10-04T20:21:19.366Z,22.04
2023-10-04T20:23:47.306Z,21.99
2023-10-04T20:26:16.536Z,21.94
2023-10-04T20:28:44.438Z,21.88
2023-10-04T20:31:12.366Z,21.82
2023-10-04T20:33:40.384Z,21.77
2023-10-04T20:36:08.764Z,21.73
2023-10-04T20:38:36.837Z,21.65
2023-10-04T20:41:05.292Z,21.63
2023-10-04T20:43:33.045Z,21.55
2023-10-04T20:46:00.815Z,21.57
2023-10-04T20:48:29.411Z,21.55
2023-10-04T20:50:57.366Z,21.53
2023-10-04T21:01:04.619Z,21.51
2023-10-04T21:11:09.307Z,21.52
2023-10-04T21:13:37.063Z,21.50
2023-10-04T21:16:05.809Z,21.46
2023-10-04T21:18:34.100Z,21.43
2023-10-04T21:21:02.574Z,21.40
2023-10-04T21:23:30.852Z,21.37
2023-10-04T21:26:00.550Z,21.34
2023-10-04T21:28:29.596Z,21.33
2023-10-04T21:31:03.433Z,21.28
2023-10-04T21:33:31.270Z,21.25
2023-10-04T21:36:11.632Z,21.20
2023-10-04T21:38:41.138Z,21.16
2023-10-04T21:41:08.910Z,21.10
2023-10-04T21:43:38.287Z,21.04
2023-10-04T21:46:10.399Z,20.99
2023-10-04T21:56:20.184Z,21.08
2023-10-04T22:06:24.347Z,21.11
2023-10-04T22:08:52.286Z,21.09
2023-10-04T22:11:20.396Z,21.08
2023-10-04T22:13:48.737Z,21.07
2023-10-04T22:16:17.247Z,21.06
2023-10-04T22:18:44.982Z,21.05
2023-10-04T22:21:12.626Z,21.06
2023-10-04T22:23:40.257Z,21.08
2023-10-04T22:26:09.138Z,21.10
2023-10-04T22:28:36.712Z,21.10
2023-10-04T22:31:05.629Z,21.12
2023-10-04T22:33:35.545Z,21.12
2023-10-04T22:36:03.385Z,21.12
2023-10-04T22:38:31.587Z,21.13
2023-10-04T22:41:01.704Z,21.18
2023-10-04T22:43:29.377Z,21.24
2023-10-04T22:45:57.197Z,21.26
2023-10-04T22:48:24.837Z,21.27
2023-10-04T22:50:52.440Z,21.28
2023-10-04T22:53:20.357Z,21.28
2023-10-04T22:55:48.011Z,21.30
2023-10-04T22:58:17.033Z,21.32
2023-10-04T23:00:47.445Z,21.33
2023-10-04T23:03:16.937Z,21.31
2023-10-04T23:05:44.814Z,21.30
2023-10-04T23:08:13.718Z,21.31
2023-10-04T23:10:41.385Z,21.31
2023-10-04T23:13:13.404Z,21.30
2023-10-04T23:15:41.174Z,21.27
2023-10-04T23:18:14.489Z,21.25
2023-10-04T23:20:49.240Z,21.24
2023-10-04T23:23:16.986Z,21.22
2023-10-04T23:25:49.931Z,21.20
2023-10-04T23:28:18.693Z,21.18
2023-10-04T23:30:50.498Z,21.18
2023-10-04T23:33:20.368Z,21.18
2023-10-04T23:36:00.978Z,21.19
2023-10-04T23:38:35.321Z,21.21
2023-10-04T23:41:07.953Z,21.23
2023-10-04T23:43:44.746Z,21.25
2023-10-04T23:46:26.169Z,21.25
2023-10-04T23:48:54.576Z,21.24
2023-10-04T23:51:23.599Z,21.22
2023-10-04T23:54:08.399Z,21.20
2023-10-04T23:56:41.514Z,21.18
2023-10-04T23:59:09.677Z,21.16
